sensor_id;sensor_type;location;lat;lon;timestamp;P1;durP1;ratioP1;P2;durP2;ratioP2
29416;SDS011;28421;51.030;4.006;2023-04-25T03:15:43;12.30;;;2.83;;
29416;SDS011;28421;51.030;4.006;2023-04-25T03:18:09;15.60;;;4.50;;
29416;SDS011;28421;51.030;4.006;2023-04-25T03:20:34;13.05;;;3.85;;
29416;SDS011;28421;51.030;4.006;2023-04-25T03:22:59;8.07;;;2.75;;
29416;SDS011;28421;51.030;4.006;2023-04-25T03:25:26;11.73;;;3.22;;
29416;SDS011;28421;51.030;4.006;2023-04-25T03:27:52;15.68;;;3.63;;
29416;SDS011;28421;51.030;4.006;2023-04-25T03:30:17;9.65;;;4.03;;
29416;SDS011;28421;51.030;4.006;2023-04-25T03:32:44;9.93;;;3.30;;
29416;SDS011;28421;51.030;4.006;2023-04-25T03:35:12;13.18;;;3.20;;
29416;SDS011;28421;51.030;4.006;2023-04-25T03:37:37;15.07;;;3.85;;
29416;SDS011;28421;51.030;4.006;2023-04-25T03:40:03;17.52;;;3.72;;
29416;SDS011;28421;51.030;4.006;2023-04-25T03:42:49;8.90;;;3.40;;
29416;SDS011;28421;51.030;4.006;2023-04-25T03:45:15;13.35;;;3.55;;
29416;SDS011;28421;51.030;4.006;2023-04-25T03:47:40;11.20;;;3.70;;
29416;SDS011;28421;51.030;4.006;2023-04-25T03:50:06;11.98;;;3.80;;
29416;SDS011;28421;51.030;4.006;2023-04-25T03:52:32;8.48;;;3.00;;
29416;SDS011;28421;51.030;4.006;2023-04-25T03:54:58;10.50;;;3.72;;
29416;SDS011;28421;51.030;4.006;2023-04-25T03:57:24;13.15;;;3.00;;
29416;SDS011;28421;51.030;4.006;2023-04-25T03:59:49;13.10;;;3.72;;
29416;SDS011;28421;51.030;4.006;2023-04-25T04:02:15;9.48;;;3.20;;
29416;SDS011;28421;51.030;4.006;2023-04-25T04:04:40;11.07;;;3.67;;
29416;SDS011;28421;51.030;4.006;2023-04-25T04:07:06;6.50;;;3.70;;
29416;SDS011;28421;51.030;4.006;2023-04-25T04:09:38;14.10;;;3.28;;
29416;SDS011;28421;51.030;4.006;2023-04-25T04:12:08;7.38;;;3.55;;
29416;SDS011;28421;51.030;4.006;2023-04-25T04:14:35;3.85;;;3.20;;
29416;SDS011;28421;51.030;4.006;2023-04-25T04:17:00;7.57;;;2.65;;
29416;SDS011;28421;51.030;4.006;2023-04-25T04:19:27;6.75;;;3.10;;
29416;SDS011;28421;51.030;4.006;2023-04-25T04:22:07;6.40;;;3.00;;
29416;SDS011;28421;51.030;4.006;2023-04-25T04:24:33;12.63;;;3.50;;
29416;SDS011;28421;51.030;4.006;2023-04-25T04:27:03;12.15;;;2.83;;
29416;SDS011;28421;51.030;4.006;2023-04-25T04:29:34;11.95;;;3.40;;
29416;SDS011;28421;51.030;4.006;2023-04-25T04:32:14;6.93;;;2.90;;
29416;SDS011;28421;51.030;4.006;2023-04-25T04:34:41;6.43;;;3.17;;
29416;SDS011;28421;51.030;4.006;2023-04-25T04:37:07;8.07;;;3.40;;
29416;SDS011;28421;51.030;4.006;2023-04-25T04:39:34;8.15;;;3.05;;
29416;SDS011;28421;51.030;4.006;2023-04-25T04:42:09;13.60;;;3.28;;
29416;SDS011;28421;51.030;4.006;2023-04-25T04:44:51;5.50;;;2.70;;
29416;SDS011;28421;51.030;4.006;2023-04-25T04:47:26;12.65;;;3.15;;
29416;SDS011;28421;51.030;4.006;2023-04-25T04:50:16;6.53;;;2.92;;
29416;SDS011;28421;51.030;4.006;2023-04-25T04:53:00;3.78;;;2.53;;
29416;SDS011;28421;51.030;4.006;2023-04-25T04:55:42;11.80;;;3.53;;
29416;SDS011;28421;51.030;4.006;2023-04-25T04:58:31;3.97;;;2.95;;
29416;SDS011;28421;51.030;4.006;2023-04-25T05:01:12;9.50;;;2.88;;
29416;SDS011;28421;51.030;4.006;2023-04-25T05:03:54;12.13;;;4.22;;
29416;SDS011;28421;51.030;4.006;2023-04-25T05:06:45;12.68;;;2.80;;
29416;SDS011;28421;51.030;4.006;2023-04-25T05:09:42;16.70;;;3.40;;
29416;SDS011;28421;51.030;4.006;2023-04-25T05:12:30;9.95;;;3.55;;
29416;SDS011;28421;51.030;4.006;2023-04-25T05:15:35;7.28;;;2.50;;
29416;SDS011;28421;51.030;4.006;2023-04-25T05:18:19;9.43;;;2.63;;
29416;SDS011;28421;51.030;4.006;2023-04-25T05:21:04;8.20;;;2.75;;
29416;SDS011;28421;51.030;4.006;2023-04-25T05:24:05;8.23;;;2.83;;
29416;SDS011;28421;51.030;4.006;2023-04-25T05:26:49;7.47;;;2.92;;
29416;SDS011;28421;51.030;4.006;2023-04-25T05:29:40;7.18;;;2.60;;
29416;SDS011;28421;51.030;4.006;2023-04-25T05:32:28;10.32;;;2.83;;
29416;SDS011;28421;51.030;4.006;2023-04-25T05:34:54;6.07;;;3.15;;
29416;SDS011;28421;51.030;4.006;2023-04-25T05:37:35;7.95;;;3.00;;
29416;SDS011;28421;51.030;4.006;2023-04-25T05:40:11;5.13;;;3.10;;
29416;SDS011;28421;51.030;4.006;2023-04-25T05:42:43;7.20;;;3.67;;
29416;SDS011;28421;51.030;4.006;2023-04-25T05:45:29;8.70;;;4.10;;
29416;SDS011;28421;51.030;4.006;2023-04-25T05:48:08;10.23;;;3.88;;
29416;SDS011;28421;51.030;4.006;2023-04-25T05:50:55;6.38;;;3.15;;
29416;SDS011;28421;51.030;4.006;2023-04-25T05:53:39;7.38;;;2.95;;
29416;SDS011;28421;51.030;4.006;2023-04-25T05:56:05;7.47;;;3.08;;
29416;SDS011;28421;51.030;4.006;2023-04-25T05:58:31;9.82;;;2.83;;
29416;SDS011;28421;51.030;4.006;2023-04-25T06:00:58;2.75;;;2.38;;
29416;SDS011;28421;51.030;4.006;2023-04-25T06:03:23;21.95;;;4.05;;
29416;SDS011;28421;51.030;4.006;2023-04-25T06:05:49;10.25;;;3.92;;
29416;SDS011;28421;51.030;4.006;2023-04-25T06:08:15;16.30;;;3.35;;
29416;SDS011;28421;51.030;4.006;2023-04-25T06:10:41;16.13;;;4.32;;
29416;SDS011;28421;51.030;4.006;2023-04-25T06:13:07;20.00;;;4.05;;
29416;SDS011;28421;51.030;4.006;2023-04-25T06:15:34;10.27;;;3.58;;
29416;SDS011;28421;51.030;4.006;2023-04-25T06:18:00;7.60;;;2.47;;
29416;SDS011;28421;51.030;4.006;2023-04-25T06:20:26;8.50;;;3.20;;
29416;SDS011;28421;51.030;4.006;2023-04-25T06:22:54;6.85;;;3.22;;
29416;SDS011;28421;51.030;4.006;2023-04-25T06:25:25;11.90;;;2.88;;
29416;SDS011;28421;51.030;4.006;2023-04-25T06:27:51;8.50;;;2.85;;
29416;SDS011;28421;51.030;4.006;2023-04-25T06:30:16;6.28;;;3.70;;
29416;SDS011;28421;51.030;4.006;2023-04-25T06:32:49;10.52;;;3.95;;
29416;SDS011;28421;51.030;4.006;2023-04-25T06:35:15;7.25;;;3.47;;
29416;SDS011;28421;51.030;4.006;2023-04-25T06:37:40;4.60;;;2.75;;
29416;SDS011;28421;51.030;4.006;2023-04-25T06:40:06;15.88;;;2.53;;
29416;SDS011;28421;51.030;4.006;2023-04-25T06:42:32;9.77;;;2.80;;
29416;SDS011;28421;51.030;4.006;2023-04-25T06:44:58;13.48;;;3.22;;
29416;SDS011;28421;51.030;4.006;2023-04-25T06:47:26;7.05;;;3.05;;
29416;SDS011;28421;51.030;4.006;2023-04-25T06:49:52;6.45;;;2.42;;
29416;SDS011;28421;51.030;4.006;2023-04-25T06:52:19;8.07;;;2.90;;
29416;SDS011;28421;51.030;4.006;2023-04-25T06:54:45;4.13;;;2.60;;
29416;SDS011;28421;51.030;4.006;2023-04-25T06:57:21;5.82;;;2.80;;
29416;SDS011;28421;51.030;4.006;2023-04-25T06:59:47;13.88;;;3.10;;
29416;SDS011;28421;51.030;4.006;2023-04-25T07:02:12;7.57;;;2.55;;
29416;SDS011;28421;51.030;4.006;2023-04-25T07:04:38;4.93;;;2.67;;
29416;SDS011;28421;51.030;4.006;2023-04-25T07:07:03;9.05;;;2.45;;
29416;SDS011;28421;51.030;4.006;2023-04-25T07:09:51;9.52;;;2.08;;
29416;SDS011;28421;51.030;4.006;2023-04-25T07:12:17;7.85;;;2.00;;
29416;SDS011;28421;51.030;4.006;2023-04-25T07:14:43;4.65;;;2.35;;
29416;SDS011;28421;51.030;4.006;2023-04-25T07:17:09;10.38;;;3.15;;
29416;SDS011;28421;51.030;4.006;2023-04-25T07:19:35;2.05;;;1.85;;
29416;SDS011;28421;51.030;4.006;2023-04-25T07:22:01;12.55;;;2.47;;
29416;SDS011;28421;51.030;4.006;2023-04-25T07:24:27;1.35;;;1.23;;
29416;SDS011;28421;51.030;4.006;2023-04-25T07:26:55;8.48;;;2.13;;
29416;SDS011;28421;51.030;4.006;2023-04-25T07:29:25;3.78;;;2.05;;
29416;SDS011;28421;51.030;4.006;2023-04-25T07:31:51;4.32;;;1.55;;
29416;SDS011;28421;51.030;4.006;2023-04-25T07:34:19;4.43;;;2.17;;
29416;SDS011;28421;51.030;4.006;2023-04-25T07:36:44;5.55;;;1.73;;
29416;SDS011;28421;51.030;4.006;2023-04-25T07:39:10;5.20;;;2.00;;
29416;SDS011;28421;51.030;4.006;2023-04-25T07:41:37;4.95;;;2.03;;
29416;SDS011;28421;51.030;4.006;2023-04-25T07:44:03;4.40;;;1.90;;
29416;SDS011;28421;51.030;4.006;2023-04-25T07:46:30;4.72;;;1.60;;
29416;SDS011;28421;51.030;4.006;2023-04-25T07:48:55;3.90;;;1.95;;
29416;SDS011;28421;51.030;4.006;2023-04-25T07:51:21;3.05;;;2.20;;
29416;SDS011;28421;51.030;4.006;2023-04-25T07:53:48;8.10;;;2.60;;
29416;SDS011;28421;51.030;4.006;2023-04-25T07:56:15;5.03;;;1.85;;
29416;SDS011;28421;51.030;4.006;2023-04-25T07:58:43;7.45;;;1.67;;
29416;SDS011;28421;51.030;4.006;2023-04-25T08:01:12;12.73;;;2.75;;
29416;SDS011;28421;51.030;4.006;2023-04-25T08:03:38;2.22;;;1.55;;
29416;SDS011;28421;51.030;4.006;2023-04-25T08:06:08;9.23;;;2.65;;
29416;SDS011;28421;51.030;4.006;2023-04-25T08:08:42;10.32;;;1.35;;
29416;SDS011;28421;51.030;4.006;2023-04-25T08:11:11;6.18;;;1.90;;
29416;SDS011;28421;51.030;4.006;2023-04-25T08:13:37;9.02;;;2.03;;
29416;SDS011;28421;51.030;4.006;2023-04-25T08:16:03;2.42;;;1.17;;
29416;SDS011;28421;51.030;4.006;2023-04-25T08:18:28;3.15;;;1.30;;
29416;SDS011;28421;51.030;4.006;2023-04-25T08:20:54;6.15;;;2.17;;
29416;SDS011;28421;51.030;4.006;2023-04-25T08:23:19;1.15;;;0.93;;
29416;SDS011;28421;51.030;4.006;2023-04-25T08:26:00;1.75;;;1.30;;
29416;SDS011;28421;51.030;4.006;2023-04-25T08:28:27;1.50;;;1.20;;
29416;SDS011;28421;51.030;4.006;2023-04-25T08:30:55;6.40;;;2.08;;
29416;SDS011;28421;51.030;4.006;2023-04-25T08:33:20;10.27;;;1.88;;
29416;SDS011;28421;51.030;4.006;2023-04-25T08:36:05;3.20;;;1.63;;
29416;SDS011;28421;51.030;4.006;2023-04-25T08:38:31;7.03;;;1.75;;
29416;SDS011;28421;51.030;4.006;2023-04-25T08:40:57;5.00;;;1.83;;
29416;SDS011;28421;51.030;4.006;2023-04-25T08:43:26;7.00;;;2.15;;
29416;SDS011;28421;51.030;4.006;2023-04-25T08:45:54;7.38;;;1.40;;
29416;SDS011;28421;51.030;4.006;2023-04-25T08:48:39;2.30;;;1.38;;
29416;SDS011;28421;51.030;4.006;2023-04-25T08:51:06;3.03;;;1.30;;
29416;SDS011;28421;51.030;4.006;2023-04-25T08:53:33;5.65;;;1.63;;
29416;SDS011;28421;51.030;4.006;2023-04-25T08:56:02;12.95;;;1.30;;
29416;SDS011;28421;51.030;4.006;2023-04-25T08:58:28;8.43;;;1.20;;
29416;SDS011;28421;51.030;4.006;2023-04-25T09:00:54;7.93;;;1.40;;
29416;SDS011;28421;51.030;4.006;2023-04-25T09:03:22;3.80;;;1.65;;
29416;SDS011;28421;51.030;4.006;2023-04-25T09:05:48;7.93;;;1.90;;
29416;SDS011;28421;51.030;4.006;2023-04-25T09:08:15;4.10;;;1.40;;
29416;SDS011;28421;51.030;4.006;2023-04-25T09:10:41;3.70;;;1.33;;
29416;SDS011;28421;51.030;4.006;2023-04-25T09:13:11;12.43;;;2.00;;
29416;SDS011;28421;51.030;4.006;2023-04-25T09:16:12;3.05;;;1.48;;
29416;SDS011;28421;51.030;4.006;2023-04-25T09:18:58;7.15;;;1.80;;
29416;SDS011;28421;51.030;4.006;2023-04-25T09:21:24;10.43;;;1.83;;
29416;SDS011;28421;51.030;4.006;2023-04-25T09:23:50;4.65;;;1.30;;
29416;SDS011;28421;51.030;4.006;2023-04-25T09:26:18;4.43;;;1.50;;
29416;SDS011;28421;51.030;4.006;2023-04-25T09:28:45;3.63;;;1.85;;
29416;SDS011;28421;51.030;4.006;2023-04-25T09:31:21;1.50;;;0.90;;
29416;SDS011;28421;51.030;4.006;2023-04-25T09:33:50;8.95;;;2.25;;
29416;SDS011;28421;51.030;4.006;2023-04-25T09:36:26;8.73;;;1.90;;
29416;SDS011;28421;51.030;4.006;2023-04-25T09:39:01;5.40;;;1.92;;
29416;SDS011;28421;51.030;4.006;2023-04-25T09:41:28;7.88;;;1.88;;
29416;SDS011;28421;51.030;4.006;2023-04-25T09:43:58;3.95;;;1.20;;
29416;SDS011;28421;51.030;4.006;2023-04-25T09:46:36;3.63;;;1.88;;
29416;SDS011;28421;51.030;4.006;2023-04-25T09:49:06;7.65;;;1.48;;
29416;SDS011;28421;51.030;4.006;2023-04-25T09:51:39;1.33;;;1.20;;
29416;SDS011;28421;51.030;4.006;2023-04-25T09:54:06;8.07;;;1.60;;
29416;SDS011;28421;51.030;4.006;2023-04-25T09:56:36;10.10;;;2.55;;
29416;SDS011;28421;51.030;4.006;2023-04-25T09:59:05;5.63;;;1.60;;
29416;SDS011;28421;51.030;4.006;2023-04-25T10:01:33;4.18;;;1.58;;
29416;SDS011;28421;51.030;4.006;2023-04-25T10:04:10;7.05;;;1.10;;
29416;SDS011;28421;51.030;4.006;2023-04-25T10:06:57;6.03;;;1.63;;
29416;SDS011;28421;51.030;4.006;2023-04-25T10:09:25;4.22;;;1.45;;
29416;SDS011;28421;51.030;4.006;2023-04-25T10:11:51;1.60;;;1.23;;
29416;SDS011;28421;51.030;4.006;2023-04-25T10:14:18;2.95;;;1.23;;
29416;SDS011;28421;51.030;4.006;2023-04-25T10:16:44;5.05;;;1.45;;
29416;SDS011;28421;51.030;4.006;2023-04-25T10:19:10;4.03;;;2.08;;
29416;SDS011;28421;51.030;4.006;2023-04-25T10:21:40;4.07;;;1.88;;
29416;SDS011;28421;51.030;4.006;2023-04-25T10:24:13;2.95;;;1.13;;
29416;SDS011;28421;51.030;4.006;2023-04-25T10:26:40;2.80;;;1.42;;
29416;SDS011;28421;51.030;4.006;2023-04-25T10:29:06;3.63;;;1.17;;
29416;SDS011;28421;51.030;4.006;2023-04-25T10:31:31;8.70;;;1.58;;
29416;SDS011;28421;51.030;4.006;2023-04-25T10:33:59;5.07;;;1.15;;
29416;SDS011;28421;51.030;4.006;2023-04-25T10:36:25;9.75;;;1.73;;
29416;SDS011;28421;51.030;4.006;2023-04-25T10:38:52;8.70;;;2.50;;
29416;SDS011;28421;51.030;4.006;2023-04-25T10:41:19;1.88;;;1.42;;
29416;SDS011;28421;51.030;4.006;2023-04-25T10:43:46;5.18;;;1.73;;
29416;SDS011;28421;51.030;4.006;2023-04-25T10:46:22;2.53;;;1.35;;
29416;SDS011;28421;51.030;4.006;2023-04-25T10:48:52;1.55;;;1.23;;
29416;SDS011;28421;51.030;4.006;2023-04-25T10:51:21;3.53;;;1.83;;
29416;SDS011;28421;51.030;4.006;2023-04-25T10:56:20;8.13;;;2.03;;
29416;SDS011;28421;51.030;4.006;2023-04-25T10:58:46;3.53;;;1.35;;
29416;SDS011;28421;51.030;4.006;2023-04-25T11:01:13;3.95;;;1.48;;
29416;SDS011;28421;51.030;4.006;2023-04-25T11:03:40;1.88;;;1.17;;
29416;SDS011;28421;51.030;4.006;2023-04-25T11:06:22;2.05;;;1.70;;
29416;SDS011;28421;51.030;4.006;2023-04-25T11:08:52;1.97;;;1.77;;
29416;SDS011;28421;51.030;4.006;2023-04-25T11:11:17;4.78;;;1.85;;
29416;SDS011;28421;51.030;4.006;2023-04-25T11:13:47;2.55;;;1.30;;
29416;SDS011;28421;51.030;4.006;2023-04-25T11:16:13;2.70;;;1.35;;
29416;SDS011;28421;51.030;4.006;2023-04-25T11:18:40;4.30;;;1.20;;
29416;SDS011;28421;51.030;4.006;2023-04-25T11:21:08;1.30;;;1.15;;
29416;SDS011;28421;51.030;4.006;2023-04-25T11:23:34;3.55;;;2.20;;
29416;SDS011;28421;51.030;4.006;2023-04-25T11:26:00;2.55;;;1.23;;
29416;SDS011;28421;51.030;4.006;2023-04-25T11:28:28;1.63;;;0.93;;
29416;SDS011;28421;51.030;4.006;2023-04-25T11:30:54;2.70;;;1.27;;
29416;SDS011;28421;51.030;4.006;2023-04-25T11:33:23;6.82;;;1.40;;
29416;SDS011;28421;51.030;4.006;2023-04-25T11:35:51;4.25;;;1.08;;
29416;SDS011;28421;51.030;4.006;2023-04-25T11:38:18;6.57;;;1.50;;
29416;SDS011;28421;51.030;4.006;2023-04-25T11:40:44;3.33;;;1.83;;
29416;SDS011;28421;51.030;4.006;2023-04-25T11:43:09;4.43;;;1.17;;
29416;SDS011;28421;51.030;4.006;2023-04-25T11:45:36;6.70;;;1.65;;
29416;SDS011;28421;51.030;4.006;2023-04-25T11:48:02;3.65;;;1.50;;
29416;SDS011;28421;51.030;4.006;2023-04-25T11:50:28;2.88;;;1.30;;
29416;SDS011;28421;51.030;4.006;2023-04-25T11:52:55;2.33;;;0.98;;
29416;SDS011;28421;51.030;4.006;2023-04-25T11:55:22;0.90;;;0.90;;
29416;SDS011;28421;51.030;4.006;2023-04-25T11:57:48;4.00;;;1.52;;
29416;SDS011;28421;51.030;4.006;2023-04-25T12:00:20;3.35;;;1.33;;
29416;SDS011;28421;51.030;4.006;2023-04-25T12:02:51;2.72;;;1.38;;
29416;SDS011;28421;51.030;4.006;2023-04-25T12:05:18;4.25;;;1.25;;
29416;SDS011;28421;51.030;4.006;2023-04-25T12:07:45;1.60;;;1.13;;
29416;SDS011;28421;51.030;4.006;2023-04-25T12:10:12;5.30;;;1.35;;
29416;SDS011;28421;51.030;4.006;2023-04-25T12:12:42;0.95;;;0.95;;
29416;SDS011;28421;51.030;4.006;2023-04-25T12:17:47;8.85;;;1.52;;
29416;SDS011;28421;51.030;4.006;2023-04-25T12:20:15;4.15;;;1.05;;
29416;SDS011;28421;51.030;4.006;2023-04-25T12:22:42;1.48;;;1.17;;
29416;SDS011;28421;51.030;4.006;2023-04-25T12:25:13;2.95;;;1.10;;
29416;SDS011;28421;51.030;4.006;2023-04-25T12:28:08;11.07;;;2.00;;
29416;SDS011;28421;51.030;4.006;2023-04-25T12:33:26;2.35;;;1.38;;
29416;SDS011;28421;51.030;4.006;2023-04-25T12:35:56;6.13;;;1.33;;
29416;SDS011;28421;51.030;4.006;2023-04-25T12:40:52;6.65;;;2.20;;
29416;SDS011;28421;51.030;4.006;2023-04-25T12:43:18;5.28;;;1.70;;
29416;SDS011;28421;51.030;4.006;2023-04-25T12:45:45;5.68;;;1.85;;
29416;SDS011;28421;51.030;4.006;2023-04-25T12:48:12;8.52;;;1.55;;
29416;SDS011;28421;51.030;4.006;2023-04-25T12:50:38;2.35;;;1.38;;
29416;SDS011;28421;51.030;4.006;2023-04-25T12:53:03;5.25;;;1.52;;
29416;SDS011;28421;51.030;4.006;2023-04-25T12:55:29;10.02;;;2.33;;
29416;SDS011;28421;51.030;4.006;2023-04-25T12:57:54;7.03;;;2.13;;
29416;SDS011;28421;51.030;4.006;2023-04-25T13:00:20;3.08;;;1.67;;
29416;SDS011;28421;51.030;4.006;2023-04-25T13:02:45;3.42;;;1.42;;
29416;SDS011;28421;51.030;4.006;2023-04-25T13:05:14;4.53;;;1.17;;
29416;SDS011;28421;51.030;4.006;2023-04-25T13:07:40;2.25;;;1.10;;
29416;SDS011;28421;51.030;4.006;2023-04-25T13:10:07;4.22;;;0.95;;
29416;SDS011;28421;51.030;4.006;2023-04-25T13:12:33;6.03;;;0.85;;
29416;SDS011;28421;51.030;4.006;2023-04-25T13:14:58;2.75;;;1.30;;
29416;SDS011;28421;51.030;4.006;2023-04-25T13:17:24;3.92;;;1.70;;
29416;SDS011;28421;51.030;4.006;2023-04-25T13:19:49;3.83;;;1.15;;
29416;SDS011;28421;51.030;4.006;2023-04-25T13:22:15;6.28;;;1.55;;
29416;SDS011;28421;51.030;4.006;2023-04-25T13:24:42;3.25;;;1.30;;
29416;SDS011;28421;51.030;4.006;2023-04-25T13:27:08;1.52;;;1.08;;
29416;SDS011;28421;51.030;4.006;2023-04-25T13:29:33;3.80;;;1.05;;
29416;SDS011;28421;51.030;4.006;2023-04-25T13:32:01;5.15;;;1.60;;
29416;SDS011;28421;51.030;4.006;2023-04-25T13:34:27;6.95;;;1.70;;
29416;SDS011;28421;51.030;4.006;2023-04-25T13:36:54;1.33;;;1.17;;
29416;SDS011;28421;51.030;4.006;2023-04-25T13:39:19;3.05;;;1.60;;
29416;SDS011;28421;51.030;4.006;2023-04-25T13:41:45;4.53;;;1.30;;
29416;SDS011;28421;51.030;4.006;2023-04-25T13:44:10;4.35;;;1.50;;
29416;SDS011;28421;51.030;4.006;2023-04-25T13:46:36;8.43;;;1.92;;
29416;SDS011;28421;51.030;4.006;2023-04-25T13:49:02;9.32;;;2.08;;
29416;SDS011;28421;51.030;4.006;2023-04-25T13:51:31;3.13;;;1.63;;
29416;SDS011;28421;51.030;4.006;2023-04-25T13:53:56;3.00;;;1.52;;
29416;SDS011;28421;51.030;4.006;2023-04-25T13:56:22;2.50;;;1.33;;
29416;SDS011;28421;51.030;4.006;2023-04-25T13:58:49;6.47;;;1.38;;
29416;SDS011;28421;51.030;4.006;2023-04-25T14:01:16;4.40;;;1.08;;
29416;SDS011;28421;51.030;4.006;2023-04-25T14:03:42;5.55;;;1.25;;
29416;SDS011;28421;51.030;4.006;2023-04-25T14:06:08;3.42;;;0.98;;
29416;SDS011;28421;51.030;4.006;2023-04-25T14:08:34;4.80;;;1.42;;
29416;SDS011;28421;51.030;4.006;2023-04-25T14:10:59;4.03;;;1.73;;
29416;SDS011;28421;51.030;4.006;2023-04-25T14:13:26;8.05;;;2.38;;
29416;SDS011;28421;51.030;4.006;2023-04-25T14:15:51;3.42;;;1.27;;
29416;SDS011;28421;51.030;4.006;2023-04-25T14:18:17;1.70;;;1.27;;
29416;SDS011;28421;51.030;4.006;2023-04-25T14:20:44;4.38;;;1.27;;
29416;SDS011;28421;51.030;4.006;2023-04-25T14:23:09;8.35;;;1.20;;
29416;SDS011;28421;51.030;4.006;2023-04-25T14:25:35;3.72;;;1.30;;
29416;SDS011;28421;51.030;4.006;2023-04-25T14:28:01;4.20;;;1.25;;
29416;SDS011;28421;51.030;4.006;2023-04-25T14:30:27;5.80;;;1.25;;
29416;SDS011;28421;51.030;4.006;2023-04-25T14:32:52;3.92;;;1.45;;
29416;SDS011;28421;51.030;4.006;2023-04-25T14:35:20;4.45;;;1.55;;
29416;SDS011;28421;51.030;4.006;2023-04-25T14:37:46;4.70;;;1.25;;
29416;SDS011;28421;51.030;4.006;2023-04-25T14:40:12;5.03;;;1.60;;
29416;SDS011;28421;51.030;4.006;2023-04-25T14:42:40;4.97;;;1.73;;
29416;SDS011;28421;51.030;4.006;2023-04-25T14:45:06;10.20;;;1.58;;
29416;SDS011;28421;51.030;4.006;2023-04-25T14:47:36;5.35;;;1.15;;
29416;SDS011;28421;51.030;4.006;2023-04-25T14:50:02;5.55;;;1.25;;
29416;SDS011;28421;51.030;4.006;2023-04-25T14:52:30;1.35;;;0.98;;
29416;SDS011;28421;51.030;4.006;2023-04-25T14:54:56;4.00;;;1.50;;
29416;SDS011;28421;51.030;4.006;2023-04-25T14:57:21;5.55;;;1.85;;
29416;SDS011;28421;51.030;4.006;2023-04-25T14:59:47;8.05;;;1.38;;
29416;SDS011;28421;51.030;4.006;2023-04-25T15:02:12;4.13;;;1.92;;
29416;SDS011;28421;51.030;4.006;2023-04-25T15:04:38;3.15;;;1.98;;
29416;SDS011;28421;51.030;4.006;2023-04-25T15:07:03;2.55;;;1.05;;
29416;SDS011;28421;51.030;4.006;2023-04-25T15:09:29;2.00;;;1.38;;
29416;SDS011;28421;51.030;4.006;2023-04-25T15:11:55;2.42;;;1.00;;
29416;SDS011;28421;51.030;4.006;2023-04-25T15:14:22;8.60;;;1.50;;
29416;SDS011;28421;51.030;4.006;2023-04-25T15:16:47;7.75;;;1.98;;
29416;SDS011;28421;51.030;4.006;2023-04-25T15:19:13;3.63;;;0.85;;
29416;SDS011;28421;51.030;4.006;2023-04-25T15:21:39;5.43;;;1.08;;
29416;SDS011;28421;51.030;4.006;2023-04-25T15:24:04;4.60;;;3.10;;
29416;SDS011;28421;51.030;4.006;2023-04-25T15:26:30;1.00;;;0.90;;
29416;SDS011;28421;51.030;4.006;2023-04-25T15:28:55;3.88;;;1.45;;
29416;SDS011;28421;51.030;4.006;2023-04-25T15:31:21;6.07;;;1.25;;
29416;SDS011;28421;51.030;4.006;2023-04-25T15:33:47;6.85;;;1.55;;
29416;SDS011;28421;51.030;4.006;2023-04-25T15:36:12;1.55;;;1.15;;
29416;SDS011;28421;51.030;4.006;2023-04-25T15:38:41;7.70;;;1.52;;
29416;SDS011;28421;51.030;4.006;2023-04-25T15:41:06;6.75;;;1.23;;
29416;SDS011;28421;51.030;4.006;2023-04-25T15:43:32;2.13;;;1.20;;
29416;SDS011;28421;51.030;4.006;2023-04-25T15:46:00;1.48;;;0.85;;
29416;SDS011;28421;51.030;4.006;2023-04-25T15:48:26;6.22;;;1.60;;
29416;SDS011;28421;51.030;4.006;2023-04-25T15:50:51;7.50;;;2.17;;
29416;SDS011;28421;51.030;4.006;2023-04-25T15:53:17;6.03;;;1.90;;
29416;SDS011;28421;51.030;4.006;2023-04-25T15:55:42;6.50;;;1.45;;
29416;SDS011;28421;51.030;4.006;2023-04-25T15:58:08;2.30;;;1.40;;
29416;SDS011;28421;51.030;4.006;2023-04-25T16:00:34;6.22;;;1.95;;
29416;SDS011;28421;51.030;4.006;2023-04-25T16:03:01;7.55;;;1.60;;
29416;SDS011;28421;51.030;4.006;2023-04-25T16:05:28;1.98;;;1.25;;
29416;SDS011;28421;51.030;4.006;2023-04-25T16:07:54;8.57;;;1.48;;
29416;SDS011;28421;51.030;4.006;2023-04-25T16:10:19;2.30;;;1.30;;
29416;SDS011;28421;51.030;4.006;2023-04-25T16:12:45;8.98;;;2.00;;
29416;SDS011;28421;51.030;4.006;2023-04-25T16:15:14;3.17;;;1.23;;
29416;SDS011;28421;51.030;4.006;2023-04-25T16:17:41;10.05;;;1.83;;
29416;SDS011;28421;51.030;4.006;2023-04-25T16:20:06;3.45;;;1.13;;
29416;SDS011;28421;51.030;4.006;2023-04-25T16:22:39;7.95;;;1.92;;
29416;SDS011;28421;51.030;4.006;2023-04-25T16:25:06;2.80;;;1.60;;
29416;SDS011;28421;51.030;4.006;2023-04-25T16:27:33;3.83;;;1.13;;
29416;SDS011;28421;51.030;4.006;2023-04-25T16:30:04;3.50;;;1.30;;
29416;SDS011;28421;51.030;4.006;2023-04-25T16:32:32;3.28;;;1.13;;
29416;SDS011;28421;51.030;4.006;2023-04-25T16:34:58;9.13;;;1.73;;
29416;SDS011;28421;51.030;4.006;2023-04-25T16:37:23;5.68;;;2.65;;
29416;SDS011;28421;51.030;4.006;2023-04-25T16:39:49;2.92;;;1.48;;
29416;SDS011;28421;51.030;4.006;2023-04-25T16:42:15;1.42;;;1.30;;
29416;SDS011;28421;51.030;4.006;2023-04-25T16:44:40;6.78;;;2.85;;
29416;SDS011;28421;51.030;4.006;2023-04-25T16:47:06;4.82;;;2.08;;
29416;SDS011;28421;51.030;4.006;2023-04-25T16:49:31;5.15;;;2.10;;
29416;SDS011;28421;51.030;4.006;2023-04-25T16:51:57;6.97;;;1.85;;
29416;SDS011;28421;51.030;4.006;2023-04-25T16:54:23;1.95;;;1.35;;
29416;SDS011;28421;51.030;4.006;2023-04-25T16:56:50;6.95;;;1.98;;
29416;SDS011;28421;51.030;4.006;2023-04-25T16:59:16;10.18;;;2.17;;
29416;SDS011;28421;51.030;4.006;2023-04-25T17:01:42;3.78;;;2.00;;
29416;SDS011;28421;51.030;4.006;2023-04-25T17:04:07;3.35;;;1.42;;
29416;SDS011;28421;51.030;4.006;2023-04-25T17:06:32;4.40;;;2.30;;
29416;SDS011;28421;51.030;4.006;2023-04-25T17:08:59;6.15;;;1.65;;
29416;SDS011;28421;51.030;4.006;2023-04-25T17:11:24;2.97;;;1.77;;
29416;SDS011;28421;51.030;4.006;2023-04-25T17:13:50;2.63;;;1.25;;
29416;SDS011;28421;51.030;4.006;2023-04-25T17:16:17;4.00;;;1.33;;
29416;SDS011;28421;51.030;4.006;2023-04-25T17:18:47;6.22;;;2.45;;
29416;SDS011;28421;51.030;4.006;2023-04-25T17:21:13;6.32;;;2.17;;
29416;SDS011;28421;51.030;4.006;2023-04-25T17:23:39;1.77;;;1.52;;
29416;SDS011;28421;51.030;4.006;2023-04-25T17:26:10;3.88;;;1.23;;
29416;SDS011;28421;51.030;4.006;2023-04-25T17:28:36;2.55;;;1.30;;
29416;SDS011;28421;51.030;4.006;2023-04-25T17:31:02;2.08;;;1.50;;
29416;SDS011;28421;51.030;4.006;2023-04-25T17:33:27;3.88;;;1.30;;
29416;SDS011;28421;51.030;4.006;2023-04-25T17:35:53;3.35;;;2.47;;
29416;SDS011;28421;51.030;4.006;2023-04-25T17:38:18;2.53;;;1.33;;
29416;SDS011;28421;51.030;4.006;2023-04-25T17:40:44;1.55;;;0.93;;
29416;SDS011;28421;51.030;4.006;2023-04-25T17:43:09;2.10;;;1.30;;
29416;SDS011;28421;51.030;4.006;2023-04-25T17:45:35;3.17;;;1.75;;
29416;SDS011;28421;51.030;4.006;2023-04-25T17:48:01;4.78;;;1.83;;
29416;SDS011;28421;51.030;4.006;2023-04-25T17:50:27;6.90;;;1.38;;
29416;SDS011;28421;51.030;4.006;2023-04-25T17:52:53;1.33;;;1.00;;
29416;SDS011;28421;51.030;4.006;2023-04-25T17:55:18;7.25;;;1.25;;
29416;SDS011;28421;51.030;4.006;2023-04-25T17:57:44;5.35;;;1.30;;
29416;SDS011;28421;51.030;4.006;2023-04-25T18:00:10;5.93;;;1.92;;
29416;SDS011;28421;51.030;4.006;2023-04-25T18:02:41;1.48;;;1.38;;
29416;SDS011;28421;51.030;4.006;2023-04-25T18:05:06;3.70;;;1.20;;
29416;SDS011;28421;51.030;4.006;2023-04-25T18:07:35;3.55;;;1.40;;
29416;SDS011;28421;51.030;4.006;2023-04-25T18:10:01;1.40;;;1.20;;
29416;SDS011;28421;51.030;4.006;2023-04-25T18:12:31;4.10;;;1.63;;
29416;SDS011;28421;51.030;4.006;2023-04-25T18:15:27;5.07;;;1.73;;
29416;SDS011;28421;51.030;4.006;2023-04-25T18:18:22;5.05;;;1.27;;
29416;SDS011;28421;51.030;4.006;2023-04-25T18:20:51;3.08;;;1.98;;